createdAt,value
2022-12-25T00:04:36.683Z,28.02
2022-12-25T00:09:38.557Z,31.63
2022-12-25T00:14:40.543Z,26.30
2022-12-25T00:19:42.606Z,31.48
2022-12-25T00:24:44.462Z,26.42
2022-12-25T00:29:46.364Z,28.23
2022-12-25T00:34:48.244Z,29.10
2022-12-25T00:39:50.163Z,33.28
2022-12-25T00:44:52.150Z,35.72
2022-12-25T00:49:55.107Z,34.67
2022-12-25T00:54:57.005Z,44.77
2022-12-25T00:59:59.059Z,56.10
2022-12-25T01:05:00.943Z,49.38
2022-12-25T01:10:21.770Z,64.43
2022-12-25T01:15:23.696Z,65.32
2022-12-25T01:20:25.586Z,61.70
2022-12-25T01:25:27.522Z,67.68
2022-12-25T01:30:29.463Z,67.40
2022-12-25T01:35:31.317Z,67.30
2022-12-25T01:40:34.814Z,63.83
2022-12-25T01:45:44.638Z,54.20
2022-12-25T01:50:53.627Z,56.63
2022-12-25T01:56:03.933Z,39.10
2022-12-25T02:01:06.081Z,58.00
2022-12-25T02:06:08.376Z,66.93
2022-12-25T02:11:30.165Z,49.25
2022-12-25T02:16:57.240Z,47.90
2022-12-25T02:22:21.887Z,42.22
2022-12-25T02:27:48.391Z,54.85
2022-12-25T02:33:14.112Z,45.40
2022-12-25T02:38:29.999Z,69.03
2022-12-25T02:43:54.966Z,52.58
2022-12-25T02:49:19.215Z,84.32
2022-12-25T02:54:45.951Z,61.28
2022-12-25T03:00:09.226Z,46.42
2022-12-25T03:05:34.701Z,47.47
2022-12-25T03:10:58.777Z,98.18
2022-12-25T03:16:19.209Z,49.30
2022-12-25T03:21:39.934Z,46.22
2022-12-25T03:26:54.895Z,56.95
2022-12-25T03:32:09.735Z,52.63
2022-12-25T03:37:11.587Z,62.38
2022-12-25T03:42:54.389Z,53.22
2022-12-25T03:48:15.645Z,48.42
2022-12-25T03:53:46.161Z,65.28
2022-12-25T03:59:16.529Z,68.90
2022-12-25T04:04:40.063Z,64.30
2022-12-25T04:10:00.896Z,65.00
2022-12-25T04:15:21.466Z,64.65
2022-12-25T04:20:41.737Z,64.60
2022-12-25T04:26:02.109Z,70.38
2022-12-25T04:31:22.588Z,65.20
2022-12-25T04:36:24.529Z,67.60
2022-12-25T04:41:26.500Z,72.45
2022-12-25T04:46:28.536Z,70.97
2022-12-25T04:51:30.456Z,73.05
2022-12-25T04:56:33.149Z,83.65
2022-12-25T05:01:35.403Z,81.00
2022-12-25T05:06:37.368Z,69.30
2022-12-25T05:11:39.472Z,72.68
2022-12-25T05:16:41.337Z,79.90
2022-12-25T05:21:43.239Z,72.75
2022-12-25T05:26:45.175Z,66.95
2022-12-25T05:31:47.134Z,99.78
2022-12-25T05:36:49.061Z,127.07
2022-12-25T05:41:51.005Z,103.80
2022-12-25T05:46:52.982Z,202.50
2022-12-25T05:51:54.960Z,83.18
2022-12-25T05:56:57.159Z,79.78
2022-12-25T06:01:59.817Z,79.13
2022-12-25T06:07:01.678Z,80.90
2022-12-25T06:12:04.302Z,105.10
2022-12-25T06:17:06.298Z,82.97
2022-12-25T06:22:08.219Z,95.93
2022-12-25T06:27:10.206Z,91.65
2022-12-25T06:32:12.066Z,90.65
2022-12-25T06:37:13.938Z,98.20
2022-12-25T06:42:15.879Z,93.28
2022-12-25T06:47:17.688Z,128.43
2022-12-25T06:52:19.577Z,128.68
2022-12-25T06:57:21.402Z,119.90
2022-12-25T07:02:24.770Z,106.47
2022-12-25T07:07:26.794Z,280.63
2022-12-25T07:12:28.983Z,116.07
2022-12-25T07:17:30.790Z,106.72
2022-12-25T07:22:32.697Z,75.05
2022-12-25T07:27:34.523Z,77.45
2022-12-25T07:32:36.790Z,82.28
2022-12-25T07:37:38.664Z,79.78
2022-12-25T07:42:40.550Z,114.13
2022-12-25T07:47:43.673Z,101.50
2022-12-25T07:52:47.029Z,89.40
2022-12-25T07:57:49.031Z,77.72
2022-12-25T08:02:51.131Z,76.60
2022-12-25T08:07:57.940Z,81.53
2022-12-25T08:13:00.503Z,75.32
2022-12-25T08:18:02.391Z,68.15
2022-12-25T08:23:04.718Z,74.50
2022-12-25T08:28:06.648Z,77.50
2022-12-25T08:33:08.535Z,95.30
2022-12-25T08:38:10.378Z,89.35
2022-12-25T08:43:12.289Z,94.68
2022-12-25T08:48:14.122Z,72.72
2022-12-25T08:53:17.297Z,65.13
2022-12-25T08:58:19.729Z,81.40
2022-12-25T09:03:22.462Z,69.38
2022-12-25T09:08:24.442Z,105.40
2022-12-25T09:13:26.559Z,72.80
2022-12-25T09:18:28.452Z,62.38
2022-12-25T09:23:31.164Z,52.63
2022-12-25T09:28:33.742Z,53.60
2022-12-25T09:33:35.734Z,53.50
2022-12-25T09:38:37.720Z,69.00
2022-12-25T09:43:46.281Z,74.35
2022-12-25T09:49:07.441Z,71.18
2022-12-25T09:54:37.660Z,59.70
2022-12-25T09:59:40.179Z,50.45
2022-12-25T10:04:48.866Z,52.65
2022-12-25T10:09:50.687Z,51.25
2022-12-25T10:15:07.758Z,58.00
2022-12-25T10:20:25.820Z,60.65
2022-12-25T10:25:27.726Z,52.42
2022-12-25T10:30:31.396Z,53.20
2022-12-25T10:40:53.351Z,62.25
2022-12-25T10:45:55.392Z,67.15
2022-12-25T10:50:57.381Z,53.20
2022-12-25T10:56:02.796Z,51.28
2022-12-25T11:01:06.995Z,45.83
2022-12-25T11:06:22.866Z,49.63
2022-12-25T11:11:26.661Z,47.63
2022-12-25T11:16:40.187Z,47.10
2022-12-25T11:21:52.559Z,43.60
2022-12-25T11:26:57.276Z,46.15
2022-12-25T11:32:02.464Z,50.58
2022-12-25T11:37:12.299Z,46.38
2022-12-25T11:42:32.385Z,44.95
2022-12-25T11:47:49.014Z,49.13
2022-12-25T11:52:52.583Z,42.05
2022-12-25T11:58:12.440Z,51.25
2022-12-25T12:03:27.185Z,50.92
2022-12-25T12:08:31.145Z,49.80
2022-12-25T12:13:44.038Z,55.75
2022-12-25T12:18:50.387Z,59.63
2022-12-25T12:24:01.799Z,49.80
2022-12-25T12:29:06.437Z,47.13
2022-12-25T12:34:24.351Z,50.55
2022-12-25T12:39:31.833Z,47.22
2022-12-25T12:44:34.742Z,46.72
2022-12-25T12:49:36.657Z,65.83
2022-12-25T12:54:58.722Z,50.72
2022-12-25T13:00:08.684Z,50.80
2022-12-25T13:05:16.136Z,49.25
2022-12-25T13:10:25.879Z,53.97
2022-12-25T13:15:32.607Z,51.35
2022-12-25T13:20:41.611Z,61.45
2022-12-25T13:25:52.780Z,72.15
2022-12-25T13:31:05.987Z,64.28
2022-12-25T13:36:13.346Z,59.92
2022-12-25T13:41:39.249Z,68.50
2022-12-25T13:46:41.200Z,73.90
2022-12-25T13:51:43.894Z,82.03
2022-12-25T13:56:54.617Z,191.73
2022-12-25T14:01:57.829Z,618.10
2022-12-25T14:07:09.839Z,212.05
2022-12-25T14:12:18.912Z,134.40
2022-12-25T14:17:22.661Z,117.00
2022-12-25T14:22:26.044Z,131.10
2022-12-25T14:27:32.282Z,118.60
2022-12-25T14:32:40.787Z,132.27
2022-12-25T14:37:43.015Z,108.63
2022-12-25T14:43:01.133Z,114.93
2022-12-25T14:48:22.884Z,119.63
2022-12-25T14:53:35.499Z,119.13
2022-12-25T14:58:43.303Z,93.38
2022-12-25T15:03:45.220Z,117.10
2022-12-25T15:09:13.512Z,97.80
2022-12-25T15:14:15.435Z,95.15
2022-12-25T15:19:29.356Z,98.68
2022-12-25T15:24:35.575Z,93.63
2022-12-25T15:30:08.727Z,102.88
2022-12-25T15:34:59.628Z,100.13
2022-12-25T15:40:02.339Z,118.70
2022-12-25T15:45:04.831Z,100.30
2022-12-25T15:50:07.356Z,97.65
2022-12-25T15:55:09.875Z,99.47
2022-12-25T16:00:22.637Z,94.60
2022-12-25T16:05:24.585Z,125.63
2022-12-25T16:10:26.513Z,101.20
2022-12-25T16:15:28.415Z,118.55
2022-12-25T16:20:30.355Z,95.13
2022-12-25T16:25:32.567Z,90.97
2022-12-25T16:30:34.751Z,131.50
2022-12-25T16:35:37.048Z,85.88
2022-12-25T16:40:38.998Z,110.57
2022-12-25T16:45:40.934Z,98.40
2022-12-25T16:50:42.819Z,103.97
2022-12-25T16:55:44.713Z,116.25
2022-12-25T17:00:49.522Z,117.90
2022-12-25T17:05:51.673Z,92.90
2022-12-25T17:10:53.697Z,91.70
2022-12-25T17:15:55.799Z,114.43
2022-12-25T17:20:57.689Z,91.10
2022-12-25T17:26:03.605Z,93.88
2022-12-25T17:31:07.886Z,78.53
2022-12-25T17:36:17.279Z,88.65
2022-12-25T17:41:20.222Z,110.72
2022-12-25T17:46:24.566Z,98.77
2022-12-25T17:51:28.250Z,73.18
2022-12-25T18:01:32.989Z,73.35
2022-12-25T18:06:36.311Z,78.70
2022-12-25T18:11:43.426Z,93.68
2022-12-25T18:16:46.328Z,82.97
2022-12-25T18:21:48.754Z,89.10
2022-12-25T18:26:51.025Z,136.05
2022-12-25T18:31:53.510Z,167.27
2022-12-25T18:37:03.263Z,286.20
2022-12-25T18:42:23.763Z,545.65
2022-12-25T18:47:28.415Z,394.93
2022-12-25T18:52:47.359Z,344.65
2022-12-25T18:57:52.393Z,421.27
2022-12-25T19:02:59.436Z,335.67
2022-12-25T19:08:01.804Z,595.38
2022-12-25T19:13:03.917Z,368.98
2022-12-25T19:18:05.902Z,671.72
2022-12-25T19:23:09.072Z,507.67
2022-12-25T19:28:11.310Z,458.42
2022-12-25T19:33:18.010Z,452.23
2022-12-25T19:38:21.454Z,330.60
2022-12-25T19:43:23.403Z,455.23
2022-12-25T19:48:25.830Z,324.63
2022-12-25T19:53:30.996Z,325.50
2022-12-25T19:58:34.078Z,479.40
2022-12-25T20:03:45.553Z,659.85
2022-12-25T20:08:49.992Z,590.53
2022-12-25T20:13:52.374Z,436.33
2022-12-25T20:18:56.130Z,425.08
2022-12-25T20:23:59.685Z,341.45
2022-12-25T20:29:02.205Z,256.73
2022-12-25T20:34:07.545Z,365.63
2022-12-25T20:39:11.536Z,420.85
2022-12-25T20:44:13.431Z,279.13
2022-12-25T20:49:15.261Z,257.30
2022-12-25T20:54:17.189Z,304.05
2022-12-25T20:59:19.081Z,228.20
2022-12-25T21:04:20.931Z,367.20
2022-12-25T21:09:22.810Z,384.98
2022-12-25T21:14:26.190Z,492.85
2022-12-25T21:19:28.141Z,336.15
2022-12-25T21:24:30.117Z,256.67
2022-12-25T21:29:32.674Z,242.13
2022-12-25T21:34:34.702Z,295.80
2022-12-25T21:39:36.592Z,288.52
2022-12-25T21:44:38.457Z,226.05
2022-12-25T21:49:58.819Z,186.45
2022-12-25T21:55:00.653Z,165.75
2022-12-25T22:00:02.497Z,283.17
2022-12-25T22:05:04.884Z,165.63
2022-12-25T22:10:06.882Z,119.90
2022-12-25T22:15:10.543Z,107.85
2022-12-25T22:30:40.024Z,153.70
2022-12-25T22:35:41.941Z,98.77
2022-12-25T22:40:43.791Z,70.15
2022-12-25T22:45:45.667Z,63.15
2022-12-25T22:50:47.579Z,57.67
2022-12-25T22:55:49.749Z,68.63
2022-12-25T23:00:51.656Z,74.75
2022-12-25T23:05:55.316Z,79.72
2022-12-25T23:16:03.546Z,64.35
2022-12-25T23:21:23.941Z,64.65
2022-12-25T23:26:25.805Z,62.35
2022-12-25T23:31:34.483Z,56.63
2022-12-25T23:36:36.589Z,53.33
2022-12-25T23:41:43.260Z,58.53
2022-12-25T23:46:53.253Z,60.42
2022-12-25T23:51:56.206Z,51.55
2022-12-25T23:56:58.485Z,57.00
